createdAt,value
2023-01-15T00:02:41.516Z,8.90
2023-01-15T00:12:41.195Z,10.50
2023-01-15T00:22:41.241Z,8.40
2023-01-15T00:32:41.275Z,7.90
2023-01-15T00:42:41.327Z,7.20
2023-01-15T00:52:41.229Z,5.30
2023-01-15T01:02:41.247Z,4.40
2023-01-15T01:12:41.325Z,4.10
2023-01-15T01:22:41.223Z,3.80
2023-01-15T01:32:41.222Z,4.10
2023-01-15T01:42:41.269Z,6.00
2023-01-15T01:52:41.263Z,4.70
2023-01-15T02:02:41.283Z,6.70
2023-01-15T02:12:41.238Z,5.50
2023-01-15T02:22:41.244Z,3.30
2023-01-15T02:32:41.273Z,3.50
2023-01-15T02:42:41.339Z,3.10
2023-01-15T02:52:41.272Z,2.70
2023-01-15T03:02:41.347Z,3.60
2023-01-15T03:12:41.299Z,3.40
2023-01-15T03:22:41.272Z,3.20
2023-01-15T03:32:41.291Z,5.10
2023-01-15T03:42:41.289Z,8.30
2023-01-15T03:52:41.302Z,10.10
2023-01-15T04:02:41.281Z,10.40
2023-01-15T04:12:41.412Z,9.60
2023-01-15T04:22:41.330Z,12.20
2023-01-15T04:32:41.321Z,12.40
2023-01-15T04:42:41.308Z,13.90
2023-01-15T04:52:41.321Z,14.00
2023-01-15T05:02:41.350Z,13.60
2023-01-15T05:12:41.451Z,13.20
2023-01-15T05:22:41.327Z,12.90
2023-01-15T05:32:41.455Z,12.60
2023-01-15T05:42:41.376Z,14.40
2023-01-15T05:52:41.334Z,13.30
2023-01-15T06:02:41.397Z,13.30
2023-01-15T06:12:41.386Z,13.30
2023-01-15T06:22:41.491Z,12.70
2023-01-15T06:32:41.319Z,14.10
2023-01-15T06:42:41.357Z,13.00
2023-01-15T06:52:41.483Z,13.30
2023-01-15T07:02:41.326Z,12.70
2023-01-15T07:12:41.478Z,13.00
2023-01-15T07:22:41.357Z,13.00
2023-01-15T07:42:41.348Z,11.70
2023-01-15T07:52:41.355Z,9.80
2023-01-15T08:02:41.384Z,0.90
2023-01-15T08:12:41.398Z,0.90
2023-01-15T08:22:41.384Z,1.30
2023-01-15T08:32:41.546Z,1.70
2023-01-15T08:42:41.445Z,2.50
2023-01-15T08:52:41.656Z,2.00
2023-01-15T09:02:41.401Z,2.50
2023-01-15T09:12:41.417Z,3.00
2023-01-15T09:22:41.395Z,1.40
2023-01-15T09:32:41.383Z,1.80
2023-01-15T09:42:41.410Z,2.10
2023-01-15T09:52:41.387Z,1.60
2023-01-15T10:02:41.392Z,1.80
2023-01-15T10:12:41.432Z,2.20
2023-01-15T10:22:41.457Z,2.60
2023-01-15T10:32:46.038Z,1.90
2023-01-15T10:42:41.415Z,2.20
2023-01-15T10:52:42.681Z,1.70
2023-01-15T11:02:41.672Z,1.80
2023-01-15T11:12:41.417Z,1.80
2023-01-15T11:22:43.626Z,2.00
2023-01-15T11:32:41.427Z,2.20
2023-01-15T11:42:41.428Z,2.30
2023-01-15T11:52:41.471Z,1.90
2023-01-15T12:02:41.458Z,2.50
2023-01-15T12:12:41.483Z,2.80
2023-01-15T12:22:41.503Z,1.70
2023-01-15T12:32:41.462Z,4.50
2023-01-15T12:42:41.660Z,12.00
2023-01-15T12:52:41.486Z,14.00
2023-01-15T13:02:41.477Z,16.80
2023-01-15T13:12:41.467Z,16.30
2023-01-15T13:22:41.456Z,19.40
2023-01-15T13:32:41.538Z,15.60
2023-01-15T13:42:41.529Z,14.20
2023-01-15T13:52:41.541Z,14.10
2023-01-15T14:02:41.549Z,22.30
2023-01-15T14:12:41.514Z,16.60
2023-01-15T14:22:41.519Z,15.80
2023-01-15T14:32:43.885Z,14.90
2023-01-15T14:42:41.565Z,23.50
2023-01-15T14:52:41.639Z,17.10
2023-01-15T15:02:41.585Z,16.10
2023-01-15T15:12:41.510Z,15.60
2023-01-15T15:22:41.680Z,14.70
2023-01-15T15:32:41.553Z,14.90
2023-01-15T15:42:43.688Z,15.40
2023-01-15T15:52:41.551Z,15.30
2023-01-15T16:02:41.602Z,16.90
2023-01-15T16:12:41.573Z,18.50
2023-01-15T16:22:41.654Z,20.50
2023-01-15T16:32:41.613Z,18.30
2023-01-15T16:42:41.597Z,17.90
2023-01-15T16:52:41.897Z,17.20
2023-01-15T17:02:41.714Z,18.40
2023-01-15T17:12:41.893Z,16.80
2023-01-15T17:22:41.724Z,17.30
2023-01-15T17:32:41.956Z,17.40
2023-01-15T17:42:41.606Z,19.50
2023-01-15T17:52:41.712Z,19.20
2023-01-15T18:02:41.973Z,19.90
2023-01-15T18:12:41.584Z,21.20
2023-01-15T18:22:41.646Z,21.90
2023-01-15T18:32:41.766Z,22.40
2023-01-15T18:42:41.752Z,22.30
2023-01-15T18:52:41.779Z,20.00
2023-01-15T19:02:41.732Z,21.40
2023-01-15T19:12:41.774Z,20.60
2023-01-15T19:22:41.790Z,19.30
2023-01-15T19:32:41.758Z,19.90
2023-01-15T19:42:41.639Z,20.50
2023-01-15T19:52:41.769Z,20.10
2023-01-15T20:02:41.743Z,17.00
2023-01-15T20:12:41.771Z,17.60
2023-01-15T20:22:41.803Z,16.90
2023-01-15T20:32:41.687Z,16.30
2023-01-15T20:42:41.960Z,16.10
2023-01-15T20:52:41.685Z,15.70
2023-01-15T21:02:41.663Z,16.80
2023-01-15T21:12:41.634Z,16.10
2023-01-15T21:22:41.711Z,15.90
2023-01-15T21:32:41.665Z,16.60
2023-01-15T21:42:41.758Z,16.90
2023-01-15T21:52:41.670Z,16.40
2023-01-15T22:02:41.769Z,15.90
2023-01-15T22:12:41.647Z,15.70
2023-01-15T22:22:41.645Z,15.80
2023-01-15T22:32:41.644Z,16.60
2023-01-15T22:42:41.669Z,16.00
2023-01-15T22:52:41.653Z,15.40
2023-01-15T23:02:41.672Z,15.40
2023-01-15T23:12:41.688Z,14.50
2023-01-15T23:22:41.708Z,15.40
2023-01-15T23:32:41.691Z,14.50
2023-01-15T23:42:44.617Z,16.50
2023-01-15T23:52:41.751Z,15.70
